sensor_id;sensor_type;location;lat;lon;timestamp;P1;durP1;ratioP1;P2;durP2;ratioP2
11743;SDS011;5929;51.906;7.674;2023-05-20T00:01:41;6.28;;;2.15;;
11743;SDS011;5929;51.906;7.674;2023-05-20T00:04:09;5.50;;;1.90;;
11743;SDS011;5929;51.906;7.674;2023-05-20T00:06:36;6.65;;;2.10;;
11743;SDS011;5929;51.906;7.674;2023-05-20T00:09:03;6.75;;;2.00;;
11743;SDS011;5929;51.906;7.674;2023-05-20T00:11:30;8.10;;;2.28;;
11743;SDS011;5929;51.906;7.674;2023-05-20T00:13:58;5.10;;;1.88;;
11743;SDS011;5929;51.906;7.674;2023-05-20T00:16:27;5.80;;;2.08;;
11743;SDS011;5929;51.906;7.674;2023-05-20T00:18:54;4.95;;;2.13;;
11743;SDS011;5929;51.906;7.674;2023-05-20T00:21:21;6.47;;;2.20;;
11743;SDS011;5929;51.906;7.674;2023-05-20T00:23:48;7.22;;;1.98;;
11743;SDS011;5929;51.906;7.674;2023-05-20T00:26:15;6.18;;;1.60;;
11743;SDS011;5929;51.906;7.674;2023-05-20T00:28:42;4.70;;;1.70;;
11743;SDS011;5929;51.906;7.674;2023-05-20T00:31:11;4.07;;;1.70;;
11743;SDS011;5929;51.906;7.674;2023-05-20T00:33:37;4.47;;;2.00;;
11743;SDS011;5929;51.906;7.674;2023-05-20T00:36:05;6.10;;;1.73;;
11743;SDS011;5929;51.906;7.674;2023-05-20T00:38:32;6.78;;;2.10;;
11743;SDS011;5929;51.906;7.674;2023-05-20T00:40:59;6.55;;;1.83;;
11743;SDS011;5929;51.906;7.674;2023-05-20T00:43:26;6.05;;;2.20;;
11743;SDS011;5929;51.906;7.674;2023-05-20T00:45:53;5.60;;;1.80;;
11743;SDS011;5929;51.906;7.674;2023-05-20T00:48:21;6.35;;;1.98;;
11743;SDS011;5929;51.906;7.674;2023-05-20T00:50:48;5.47;;;2.10;;
11743;SDS011;5929;51.906;7.674;2023-05-20T00:53:16;4.97;;;1.77;;
11743;SDS011;5929;51.906;7.674;2023-05-20T00:55:43;5.82;;;1.90;;
11743;SDS011;5929;51.906;7.674;2023-05-20T00:58:10;4.25;;;1.80;;
11743;SDS011;5929;51.906;7.674;2023-05-20T01:00:37;4.65;;;1.80;;
11743;SDS011;5929;51.906;7.674;2023-05-20T01:03:04;6.93;;;2.00;;
11743;SDS011;5929;51.906;7.674;2023-05-20T01:05:33;5.68;;;2.00;;
11743;SDS011;5929;51.906;7.674;2023-05-20T01:07:59;5.63;;;1.95;;
11743;SDS011;5929;51.906;7.674;2023-05-20T01:10:27;6.07;;;1.80;;
11743;SDS011;5929;51.906;7.674;2023-05-20T01:12:55;5.28;;;1.67;;
11743;SDS011;5929;51.906;7.674;2023-05-20T01:15:25;11.55;;;2.08;;
11743;SDS011;5929;51.906;7.674;2023-05-20T01:17:54;9.45;;;2.15;;
11743;SDS011;5929;51.906;7.674;2023-05-20T01:20:25;6.93;;;2.00;;
11743;SDS011;5929;51.906;7.674;2023-05-20T01:22:55;5.90;;;1.98;;
11743;SDS011;5929;51.906;7.674;2023-05-20T01:25:22;6.28;;;2.22;;
11743;SDS011;5929;51.906;7.674;2023-05-20T01:27:50;5.57;;;2.15;;
11743;SDS011;5929;51.906;7.674;2023-05-20T01:30:19;6.53;;;2.28;;
11743;SDS011;5929;51.906;7.674;2023-05-20T01:32:47;4.78;;;1.90;;
11743;SDS011;5929;51.906;7.674;2023-05-20T01:35:17;7.53;;;2.25;;
11743;SDS011;5929;51.906;7.674;2023-05-20T01:37:45;5.10;;;2.47;;
11743;SDS011;5929;51.906;7.674;2023-05-20T01:40:14;8.27;;;2.70;;
11743;SDS011;5929;51.906;7.674;2023-05-20T01:42:42;5.80;;;2.10;;
11743;SDS011;5929;51.906;7.674;2023-05-20T01:45:10;4.70;;;1.70;;
11743;SDS011;5929;51.906;7.674;2023-05-20T01:47:37;6.95;;;2.00;;
11743;SDS011;5929;51.906;7.674;2023-05-20T01:50:04;6.82;;;2.00;;
11743;SDS011;5929;51.906;7.674;2023-05-20T01:52:32;6.13;;;2.10;;
11743;SDS011;5929;51.906;7.674;2023-05-20T01:54:59;6.72;;;2.20;;
11743;SDS011;5929;51.906;7.674;2023-05-20T01:57:27;6.68;;;2.45;;
11743;SDS011;5929;51.906;7.674;2023-05-20T01:59:54;5.32;;;2.00;;
11743;SDS011;5929;51.906;7.674;2023-05-20T02:02:21;7.30;;;2.67;;
11743;SDS011;5929;51.906;7.674;2023-05-20T02:05:02;7.28;;;2.78;;
11743;SDS011;5929;51.906;7.674;2023-05-20T02:07:29;6.63;;;2.33;;
11743;SDS011;5929;51.906;7.674;2023-05-20T02:09:55;7.18;;;2.20;;
11743;SDS011;5929;51.906;7.674;2023-05-20T02:12:22;5.88;;;2.05;;
11743;SDS011;5929;51.906;7.674;2023-05-20T02:14:50;5.47;;;2.13;;
11743;SDS011;5929;51.906;7.674;2023-05-20T02:17:17;5.65;;;2.30;;
11743;SDS011;5929;51.906;7.674;2023-05-20T02:19:44;7.28;;;2.13;;
11743;SDS011;5929;51.906;7.674;2023-05-20T02:22:11;6.75;;;1.90;;
11743;SDS011;5929;51.906;7.674;2023-05-20T02:24:38;5.22;;;2.10;;
11743;SDS011;5929;51.906;7.674;2023-05-20T02:27:07;6.63;;;2.63;;
11743;SDS011;5929;51.906;7.674;2023-05-20T02:29:34;4.50;;;1.98;;
11743;SDS011;5929;51.906;7.674;2023-05-20T02:32:02;6.38;;;2.45;;
11743;SDS011;5929;51.906;7.674;2023-05-20T02:34:29;6.70;;;2.50;;
11743;SDS011;5929;51.906;7.674;2023-05-20T02:36:57;8.35;;;2.30;;
11743;SDS011;5929;51.906;7.674;2023-05-20T02:39:24;7.82;;;2.45;;
11743;SDS011;5929;51.906;7.674;2023-05-20T02:41:52;7.75;;;2.50;;
11743;SDS011;5929;51.906;7.674;2023-05-20T02:44:19;6.07;;;2.03;;
11743;SDS011;5929;51.906;7.674;2023-05-20T02:46:46;5.43;;;2.33;;
11743;SDS011;5929;51.906;7.674;2023-05-20T02:49:17;8.35;;;2.65;;
11743;SDS011;5929;51.906;7.674;2023-05-20T02:51:43;7.63;;;2.47;;
11743;SDS011;5929;51.906;7.674;2023-05-20T02:54:10;6.60;;;2.58;;
11743;SDS011;5929;51.906;7.674;2023-05-20T02:56:37;9.93;;;2.25;;
11743;SDS011;5929;51.906;7.674;2023-05-20T02:59:06;7.15;;;2.30;;
11743;SDS011;5929;51.906;7.674;2023-05-20T03:01:33;7.43;;;2.22;;
11743;SDS011;5929;51.906;7.674;2023-05-20T03:04:00;7.32;;;2.55;;
11743;SDS011;5929;51.906;7.674;2023-05-20T03:06:29;5.10;;;2.35;;
11743;SDS011;5929;51.906;7.674;2023-05-20T03:08:56;6.13;;;2.25;;
11743;SDS011;5929;51.906;7.674;2023-05-20T03:11:23;7.32;;;2.50;;
11743;SDS011;5929;51.906;7.674;2023-05-20T03:13:50;6.63;;;2.30;;
11743;SDS011;5929;51.906;7.674;2023-05-20T03:16:17;5.35;;;2.40;;
11743;SDS011;5929;51.906;7.674;2023-05-20T03:18:44;6.32;;;2.42;;
11743;SDS011;5929;51.906;7.674;2023-05-20T03:21:11;5.15;;;2.40;;
11743;SDS011;5929;51.906;7.674;2023-05-20T03:23:39;6.15;;;2.40;;
11743;SDS011;5929;51.906;7.674;2023-05-20T03:26:06;8.35;;;2.65;;
11743;SDS011;5929;51.906;7.674;2023-05-20T03:28:34;9.27;;;2.55;;
11743;SDS011;5929;51.906;7.674;2023-05-20T03:31:01;7.43;;;2.50;;
11743;SDS011;5929;51.906;7.674;2023-05-20T03:33:28;7.32;;;2.60;;
11743;SDS011;5929;51.906;7.674;2023-05-20T03:35:55;7.68;;;2.58;;
11743;SDS011;5929;51.906;7.674;2023-05-20T03:38:22;7.05;;;3.10;;
11743;SDS011;5929;51.906;7.674;2023-05-20T03:40:50;5.93;;;2.63;;
11743;SDS011;5929;51.906;7.674;2023-05-20T03:43:17;6.13;;;2.63;;
11743;SDS011;5929;51.906;7.674;2023-05-20T03:45:44;5.45;;;2.40;;
11743;SDS011;5929;51.906;7.674;2023-05-20T03:48:10;8.18;;;2.70;;
11743;SDS011;5929;51.906;7.674;2023-05-20T03:50:37;5.82;;;2.40;;
11743;SDS011;5929;51.906;7.674;2023-05-20T03:53:04;5.35;;;2.65;;
11743;SDS011;5929;51.906;7.674;2023-05-20T03:55:31;6.53;;;2.47;;
11743;SDS011;5929;51.906;7.674;2023-05-20T03:58:00;8.27;;;2.67;;
11743;SDS011;5929;51.906;7.674;2023-05-20T04:00:26;5.00;;;2.45;;
11743;SDS011;5929;51.906;7.674;2023-05-20T04:02:55;7.47;;;2.72;;
11743;SDS011;5929;51.906;7.674;2023-05-20T04:05:22;6.50;;;2.67;;
11743;SDS011;5929;51.906;7.674;2023-05-20T04:07:49;7.80;;;2.58;;
11743;SDS011;5929;51.906;7.674;2023-05-20T04:10:17;4.68;;;2.28;;
11743;SDS011;5929;51.906;7.674;2023-05-20T04:12:44;6.45;;;2.60;;
11743;SDS011;5929;51.906;7.674;2023-05-20T04:15:13;6.28;;;2.40;;
11743;SDS011;5929;51.906;7.674;2023-05-20T04:17:40;5.40;;;2.58;;
11743;SDS011;5929;51.906;7.674;2023-05-20T04:20:07;7.75;;;2.60;;
11743;SDS011;5929;51.906;7.674;2023-05-20T04:22:35;9.05;;;2.80;;
11743;SDS011;5929;51.906;7.674;2023-05-20T04:25:03;6.68;;;2.70;;
11743;SDS011;5929;51.906;7.674;2023-05-20T04:27:31;6.80;;;2.78;;
11743;SDS011;5929;51.906;7.674;2023-05-20T04:29:58;6.78;;;2.90;;
11743;SDS011;5929;51.906;7.674;2023-05-20T04:32:27;6.45;;;2.35;;
11743;SDS011;5929;51.906;7.674;2023-05-20T04:34:57;5.85;;;2.72;;
11743;SDS011;5929;51.906;7.674;2023-05-20T04:37:25;8.00;;;2.50;;
11743;SDS011;5929;51.906;7.674;2023-05-20T04:39:52;5.32;;;2.60;;
11743;SDS011;5929;51.906;7.674;2023-05-20T04:42:19;5.88;;;2.40;;
11743;SDS011;5929;51.906;7.674;2023-05-20T04:44:46;5.57;;;2.65;;
11743;SDS011;5929;51.906;7.674;2023-05-20T04:47:13;6.82;;;2.20;;
11743;SDS011;5929;51.906;7.674;2023-05-20T04:49:42;6.25;;;2.60;;
11743;SDS011;5929;51.906;7.674;2023-05-20T04:52:09;5.18;;;2.25;;
11743;SDS011;5929;51.906;7.674;2023-05-20T04:54:36;6.63;;;2.50;;
11743;SDS011;5929;51.906;7.674;2023-05-20T04:57:04;5.40;;;2.38;;
11743;SDS011;5929;51.906;7.674;2023-05-20T04:59:31;8.70;;;2.67;;
11743;SDS011;5929;51.906;7.674;2023-05-20T05:01:57;6.10;;;2.55;;
11743;SDS011;5929;51.906;7.674;2023-05-20T05:04:24;8.13;;;2.45;;
11743;SDS011;5929;51.906;7.674;2023-05-20T05:06:52;6.22;;;2.53;;
11743;SDS011;5929;51.906;7.674;2023-05-20T05:09:19;6.03;;;2.47;;
11743;SDS011;5929;51.906;7.674;2023-05-20T05:11:46;7.95;;;2.80;;
11743;SDS011;5929;51.906;7.674;2023-05-20T05:14:13;9.23;;;2.88;;
11743;SDS011;5929;51.906;7.674;2023-05-20T05:16:40;6.65;;;2.38;;
11743;SDS011;5929;51.906;7.674;2023-05-20T05:19:06;5.65;;;2.95;;
11743;SDS011;5929;51.906;7.674;2023-05-20T05:21:33;5.28;;;2.22;;
11743;SDS011;5929;51.906;7.674;2023-05-20T05:24:01;7.07;;;2.78;;
11743;SDS011;5929;51.906;7.674;2023-05-20T05:26:28;4.97;;;2.70;;
11743;SDS011;5929;51.906;7.674;2023-05-20T05:28:55;6.68;;;2.63;;
11743;SDS011;5929;51.906;7.674;2023-05-20T05:31:22;6.97;;;2.67;;
11743;SDS011;5929;51.906;7.674;2023-05-20T05:33:49;6.32;;;2.55;;
11743;SDS011;5929;51.906;7.674;2023-05-20T05:36:16;5.22;;;2.72;;
11743;SDS011;5929;51.906;7.674;2023-05-20T05:38:43;8.55;;;3.28;;
11743;SDS011;5929;51.906;7.674;2023-05-20T05:41:11;5.40;;;2.65;;
11743;SDS011;5929;51.906;7.674;2023-05-20T05:43:38;5.53;;;2.65;;
11743;SDS011;5929;51.906;7.674;2023-05-20T05:46:04;7.18;;;3.10;;
11743;SDS011;5929;51.906;7.674;2023-05-20T05:48:31;10.23;;;2.95;;
11743;SDS011;5929;51.906;7.674;2023-05-20T05:50:58;7.20;;;3.03;;
11743;SDS011;5929;51.906;7.674;2023-05-20T05:53:25;8.00;;;2.72;;
11743;SDS011;5929;51.906;7.674;2023-05-20T05:55:52;7.18;;;3.30;;
11743;SDS011;5929;51.906;7.674;2023-05-20T05:58:20;5.03;;;2.58;;
11743;SDS011;5929;51.906;7.674;2023-05-20T06:00:49;7.32;;;2.78;;
11743;SDS011;5929;51.906;7.674;2023-05-20T06:03:17;7.95;;;3.25;;
11743;SDS011;5929;51.906;7.674;2023-05-20T06:05:44;6.25;;;2.95;;
11743;SDS011;5929;51.906;7.674;2023-05-20T06:08:11;5.38;;;3.00;;
11743;SDS011;5929;51.906;7.674;2023-05-20T06:10:38;6.90;;;3.15;;
11743;SDS011;5929;51.906;7.674;2023-05-20T06:13:05;5.53;;;3.03;;
11743;SDS011;5929;51.906;7.674;2023-05-20T06:15:33;10.25;;;3.30;;
11743;SDS011;5929;51.906;7.674;2023-05-20T06:18:02;7.90;;;2.92;;
11743;SDS011;5929;51.906;7.674;2023-05-20T06:20:29;5.95;;;3.15;;
11743;SDS011;5929;51.906;7.674;2023-05-20T06:22:56;8.30;;;3.53;;
11743;SDS011;5929;51.906;7.674;2023-05-20T06:25:26;6.70;;;3.42;;
11743;SDS011;5929;51.906;7.674;2023-05-20T06:27:53;8.27;;;3.30;;
11743;SDS011;5929;51.906;7.674;2023-05-20T06:30:19;8.07;;;3.38;;
11743;SDS011;5929;51.906;7.674;2023-05-20T06:32:48;5.55;;;2.67;;
11743;SDS011;5929;51.906;7.674;2023-05-20T06:35:14;6.35;;;3.55;;
11743;SDS011;5929;51.906;7.674;2023-05-20T06:37:41;4.95;;;2.92;;
11743;SDS011;5929;51.906;7.674;2023-05-20T06:40:09;8.73;;;3.28;;
11743;SDS011;5929;51.906;7.674;2023-05-20T06:42:37;6.70;;;3.00;;
11743;SDS011;5929;51.906;7.674;2023-05-20T06:45:04;5.95;;;3.10;;
11743;SDS011;5929;51.906;7.674;2023-05-20T06:47:31;5.82;;;2.97;;
11743;SDS011;5929;51.906;7.674;2023-05-20T06:50:00;6.90;;;2.70;;
11743;SDS011;5929;51.906;7.674;2023-05-20T06:52:29;6.28;;;3.30;;
11743;SDS011;5929;51.906;7.674;2023-05-20T06:54:55;6.03;;;3.22;;
11743;SDS011;5929;51.906;7.674;2023-05-20T06:57:22;5.55;;;2.97;;
11743;SDS011;5929;51.906;7.674;2023-05-20T06:59:49;6.43;;;3.20;;
11743;SDS011;5929;51.906;7.674;2023-05-20T07:02:16;10.02;;;3.05;;
11743;SDS011;5929;51.906;7.674;2023-05-20T07:04:43;7.30;;;3.20;;
11743;SDS011;5929;51.906;7.674;2023-05-20T07:07:11;6.57;;;3.05;;
11743;SDS011;5929;51.906;7.674;2023-05-20T07:09:41;6.65;;;2.88;;
11743;SDS011;5929;51.906;7.674;2023-05-20T07:12:08;8.63;;;3.42;;
11743;SDS011;5929;51.906;7.674;2023-05-20T07:14:35;6.93;;;3.22;;
11743;SDS011;5929;51.906;7.674;2023-05-20T07:17:04;8.43;;;3.50;;
11743;SDS011;5929;51.906;7.674;2023-05-20T07:19:31;6.43;;;3.30;;
11743;SDS011;5929;51.906;7.674;2023-05-20T07:21:58;7.95;;;3.20;;
11743;SDS011;5929;51.906;7.674;2023-05-20T07:24:27;5.63;;;3.03;;
11743;SDS011;5929;51.906;7.674;2023-05-20T07:26:53;5.35;;;3.00;;
11743;SDS011;5929;51.906;7.674;2023-05-20T07:29:20;5.43;;;2.78;;
11743;SDS011;5929;51.906;7.674;2023-05-20T07:31:47;5.82;;;3.00;;
11743;SDS011;5929;51.906;7.674;2023-05-20T07:34:14;5.93;;;2.65;;
11743;SDS011;5929;51.906;7.674;2023-05-20T07:36:41;6.95;;;3.15;;
11743;SDS011;5929;51.906;7.674;2023-05-20T07:39:08;7.47;;;2.85;;
11743;SDS011;5929;51.906;7.674;2023-05-20T07:41:37;6.68;;;3.13;;
11743;SDS011;5929;51.906;7.674;2023-05-20T07:44:04;6.50;;;3.40;;
11743;SDS011;5929;51.906;7.674;2023-05-20T07:46:33;5.00;;;2.78;;
11743;SDS011;5929;51.906;7.674;2023-05-20T07:49:00;6.03;;;2.90;;
11743;SDS011;5929;51.906;7.674;2023-05-20T07:51:26;7.05;;;3.17;;
11743;SDS011;5929;51.906;7.674;2023-05-20T07:53:53;8.50;;;3.70;;
11743;SDS011;5929;51.906;7.674;2023-05-20T07:56:20;5.78;;;3.25;;
11743;SDS011;5929;51.906;7.674;2023-05-20T07:58:52;7.78;;;3.30;;
11743;SDS011;5929;51.906;7.674;2023-05-20T08:01:20;6.43;;;3.83;;
11743;SDS011;5929;51.906;7.674;2023-05-20T08:03:47;6.00;;;3.15;;
11743;SDS011;5929;51.906;7.674;2023-05-20T08:06:14;6.40;;;3.33;;
11743;SDS011;5929;51.906;7.674;2023-05-20T08:08:41;7.35;;;4.00;;
11743;SDS011;5929;51.906;7.674;2023-05-20T08:11:08;7.15;;;3.50;;
11743;SDS011;5929;51.906;7.674;2023-05-20T08:13:35;7.22;;;3.30;;
11743;SDS011;5929;51.906;7.674;2023-05-20T08:16:03;6.18;;;3.03;;
11743;SDS011;5929;51.906;7.674;2023-05-20T08:18:31;8.05;;;3.90;;
11743;SDS011;5929;51.906;7.674;2023-05-20T08:20:58;7.45;;;3.90;;
11743;SDS011;5929;51.906;7.674;2023-05-20T08:23:25;9.85;;;4.03;;
11743;SDS011;5929;51.906;7.674;2023-05-20T08:25:52;7.22;;;3.67;;
11743;SDS011;5929;51.906;7.674;2023-05-20T08:28:19;6.53;;;3.47;;
11743;SDS011;5929;51.906;7.674;2023-05-20T08:30:46;8.63;;;4.05;;
11743;SDS011;5929;51.906;7.674;2023-05-20T08:33:14;8.57;;;3.88;;
11743;SDS011;5929;51.906;7.674;2023-05-20T08:35:43;6.07;;;3.90;;
11743;SDS011;5929;51.906;7.674;2023-05-20T08:38:10;6.70;;;3.72;;
11743;SDS011;5929;51.906;7.674;2023-05-20T08:40:39;8.20;;;3.38;;
11743;SDS011;5929;51.906;7.674;2023-05-20T08:43:06;8.70;;;3.67;;
11743;SDS011;5929;51.906;7.674;2023-05-20T08:45:33;8.10;;;4.00;;
11743;SDS011;5929;51.906;7.674;2023-05-20T08:48:03;9.85;;;4.38;;
11743;SDS011;5929;51.906;7.674;2023-05-20T08:50:31;7.00;;;3.80;;
11743;SDS011;5929;51.906;7.674;2023-05-20T08:53:01;7.07;;;3.83;;
11743;SDS011;5929;51.906;7.674;2023-05-20T08:55:29;9.75;;;3.80;;
11743;SDS011;5929;51.906;7.674;2023-05-20T08:58:08;8.48;;;4.50;;
11743;SDS011;5929;51.906;7.674;2023-05-20T09:00:35;5.75;;;3.42;;
11743;SDS011;5929;51.906;7.674;2023-05-20T09:03:02;7.45;;;3.70;;
11743;SDS011;5929;51.906;7.674;2023-05-20T09:05:29;6.88;;;3.97;;
11743;SDS011;5929;51.906;7.674;2023-05-20T09:08:05;8.20;;;3.72;;
11743;SDS011;5929;51.906;7.674;2023-05-20T09:10:32;6.70;;;3.83;;
11743;SDS011;5929;51.906;7.674;2023-05-20T09:13:00;10.15;;;4.03;;
11743;SDS011;5929;51.906;7.674;2023-05-20T09:15:28;9.38;;;4.05;;
11743;SDS011;5929;51.906;7.674;2023-05-20T09:17:55;6.97;;;3.65;;
11743;SDS011;5929;51.906;7.674;2023-05-20T09:20:25;7.57;;;3.78;;
11743;SDS011;5929;51.906;7.674;2023-05-20T09:22:57;7.38;;;3.90;;
11743;SDS011;5929;51.906;7.674;2023-05-20T09:25:24;9.65;;;4.13;;
11743;SDS011;5929;51.906;7.674;2023-05-20T09:27:51;8.20;;;4.10;;
11743;SDS011;5929;51.906;7.674;2023-05-20T09:30:18;7.15;;;4.07;;
11743;SDS011;5929;51.906;7.674;2023-05-20T09:32:51;6.57;;;3.65;;
11743;SDS011;5929;51.906;7.674;2023-05-20T09:35:18;7.45;;;4.07;;
11743;SDS011;5929;51.906;7.674;2023-05-20T09:37:45;5.93;;;3.30;;
11743;SDS011;5929;51.906;7.674;2023-05-20T09:40:14;6.97;;;3.30;;
11743;SDS011;5929;51.906;7.674;2023-05-20T09:42:49;7.88;;;3.25;;
11743;SDS011;5929;51.906;7.674;2023-05-20T09:45:18;6.68;;;3.35;;
11743;SDS011;5929;51.906;7.674;2023-05-20T09:47:47;6.15;;;3.10;;
11743;SDS011;5929;51.906;7.674;2023-05-20T09:50:16;5.65;;;3.08;;
11743;SDS011;5929;51.906;7.674;2023-05-20T09:52:45;5.43;;;3.00;;
11743;SDS011;5929;51.906;7.674;2023-05-20T09:55:15;6.97;;;2.67;;
11743;SDS011;5929;51.906;7.674;2023-05-20T09:57:44;5.40;;;2.67;;
11743;SDS011;5929;51.906;7.674;2023-05-20T10:00:11;7.13;;;3.10;;
11743;SDS011;5929;51.906;7.674;2023-05-20T10:02:41;7.93;;;2.67;;
11743;SDS011;5929;51.906;7.674;2023-05-20T10:05:11;5.10;;;2.63;;
11743;SDS011;5929;51.906;7.674;2023-05-20T10:07:48;8.15;;;2.78;;
11743;SDS011;5929;51.906;7.674;2023-05-20T10:10:47;6.38;;;2.63;;
11743;SDS011;5929;51.906;7.674;2023-05-20T10:13:21;5.13;;;2.55;;
11743;SDS011;5929;51.906;7.674;2023-05-20T10:15:59;7.22;;;2.38;;
11743;SDS011;5929;51.906;7.674;2023-05-20T10:18:35;6.18;;;2.40;;
11743;SDS011;5929;51.906;7.674;2023-05-20T10:21:15;7.63;;;2.80;;
11743;SDS011;5929;51.906;7.674;2023-05-20T10:23:45;7.38;;;2.30;;
11743;SDS011;5929;51.906;7.674;2023-05-20T10:26:14;8.45;;;2.78;;
11743;SDS011;5929;51.906;7.674;2023-05-20T10:28:41;5.95;;;2.25;;
11743;SDS011;5929;51.906;7.674;2023-05-20T10:31:15;7.43;;;2.45;;
11743;SDS011;5929;51.906;7.674;2023-05-20T10:33:43;4.97;;;2.40;;
11743;SDS011;5929;51.906;7.674;2023-05-20T10:36:20;6.30;;;2.33;;
11743;SDS011;5929;51.906;7.674;2023-05-20T10:38:50;4.00;;;2.03;;
11743;SDS011;5929;51.906;7.674;2023-05-20T10:41:20;5.90;;;2.53;;
11743;SDS011;5929;51.906;7.674;2023-05-20T10:44:00;6.88;;;2.50;;
11743;SDS011;5929;51.906;7.674;2023-05-20T10:46:28;5.85;;;2.30;;
11743;SDS011;5929;51.906;7.674;2023-05-20T10:48:55;4.75;;;2.33;;
11743;SDS011;5929;51.906;7.674;2023-05-20T10:51:23;7.97;;;2.33;;
11743;SDS011;5929;51.906;7.674;2023-05-20T10:53:52;8.15;;;2.28;;
11743;SDS011;5929;51.906;7.674;2023-05-20T10:56:22;5.05;;;2.08;;
11743;SDS011;5929;51.906;7.674;2023-05-20T10:58:50;5.38;;;2.17;;
11743;SDS011;5929;51.906;7.674;2023-05-20T11:01:18;6.28;;;2.17;;
11743;SDS011;5929;51.906;7.674;2023-05-20T11:03:49;7.40;;;2.10;;
11743;SDS011;5929;51.906;7.674;2023-05-20T11:06:17;4.50;;;2.30;;
11743;SDS011;5929;51.906;7.674;2023-05-20T11:08:44;4.45;;;2.13;;
11743;SDS011;5929;51.906;7.674;2023-05-20T11:11:12;5.07;;;2.35;;
11743;SDS011;5929;51.906;7.674;2023-05-20T11:13:41;4.57;;;1.80;;
11743;SDS011;5929;51.906;7.674;2023-05-20T11:16:08;3.53;;;1.50;;
11743;SDS011;5929;51.906;7.674;2023-05-20T11:18:35;4.63;;;1.80;;
11743;SDS011;5929;51.906;7.674;2023-05-20T11:21:04;4.88;;;1.67;;
11743;SDS011;5929;51.906;7.674;2023-05-20T11:23:32;5.07;;;1.63;;
11743;SDS011;5929;51.906;7.674;2023-05-20T11:25:58;3.90;;;1.67;;
11743;SDS011;5929;51.906;7.674;2023-05-20T11:28:29;4.85;;;2.00;;
11743;SDS011;5929;51.906;7.674;2023-05-20T11:30:58;4.85;;;1.80;;
11743;SDS011;5929;51.906;7.674;2023-05-20T11:33:25;7.10;;;1.77;;
11743;SDS011;5929;51.906;7.674;2023-05-20T11:35:52;4.93;;;1.70;;
11743;SDS011;5929;51.906;7.674;2023-05-20T11:38:20;4.28;;;1.70;;
11743;SDS011;5929;51.906;7.674;2023-05-20T11:40:49;6.50;;;1.90;;
11743;SDS011;5929;51.906;7.674;2023-05-20T11:43:17;4.45;;;1.83;;
11743;SDS011;5929;51.906;7.674;2023-05-20T11:45:45;4.15;;;1.67;;
11743;SDS011;5929;51.906;7.674;2023-05-20T11:48:17;4.05;;;1.60;;
11743;SDS011;5929;51.906;7.674;2023-05-20T11:50:45;5.18;;;1.92;;
11743;SDS011;5929;51.906;7.674;2023-05-20T11:53:13;6.82;;;1.90;;
11743;SDS011;5929;51.906;7.674;2023-05-20T11:55:45;6.25;;;1.92;;
11743;SDS011;5929;51.906;7.674;2023-05-20T11:58:17;4.50;;;1.70;;
11743;SDS011;5929;51.906;7.674;2023-05-20T12:00:45;5.50;;;2.22;;
11743;SDS011;5929;51.906;7.674;2023-05-20T12:03:12;4.47;;;2.22;;
11743;SDS011;5929;51.906;7.674;2023-05-20T12:05:40;6.95;;;2.08;;
11743;SDS011;5929;51.906;7.674;2023-05-20T12:08:07;6.38;;;2.45;;
11743;SDS011;5929;51.906;7.674;2023-05-20T12:10:35;7.93;;;2.30;;
11743;SDS011;5929;51.906;7.674;2023-05-20T12:13:02;7.10;;;2.60;;
11743;SDS011;5929;51.906;7.674;2023-05-20T12:15:32;5.25;;;2.17;;
11743;SDS011;5929;51.906;7.674;2023-05-20T12:17:59;7.00;;;2.28;;
11743;SDS011;5929;51.906;7.674;2023-05-20T12:20:26;5.75;;;2.38;;
11743;SDS011;5929;51.906;7.674;2023-05-20T12:22:55;6.75;;;2.10;;
11743;SDS011;5929;51.906;7.674;2023-05-20T12:25:23;4.38;;;1.88;;
11743;SDS011;5929;51.906;7.674;2023-05-20T12:27:50;5.55;;;1.70;;
11743;SDS011;5929;51.906;7.674;2023-05-20T12:30:18;4.03;;;1.90;;
11743;SDS011;5929;51.906;7.674;2023-05-20T12:32:47;6.85;;;2.35;;
11743;SDS011;5929;51.906;7.674;2023-05-20T12:35:15;6.30;;;2.17;;
11743;SDS011;5929;51.906;7.674;2023-05-20T12:37:42;4.28;;;1.88;;
11743;SDS011;5929;51.906;7.674;2023-05-20T12:40:11;4.40;;;2.10;;
11743;SDS011;5929;51.906;7.674;2023-05-20T12:42:39;5.13;;;1.98;;
11743;SDS011;5929;51.906;7.674;2023-05-20T12:45:06;5.53;;;1.90;;
11743;SDS011;5929;51.906;7.674;2023-05-20T12:47:34;5.18;;;1.77;;
11743;SDS011;5929;51.906;7.674;2023-05-20T12:50:01;5.28;;;2.15;;
11743;SDS011;5929;51.906;7.674;2023-05-20T12:52:28;5.38;;;2.17;;
11743;SDS011;5929;51.906;7.674;2023-05-20T12:54:55;8.13;;;2.85;;
11743;SDS011;5929;51.906;7.674;2023-05-20T12:57:23;5.47;;;2.55;;
11743;SDS011;5929;51.906;7.674;2023-05-20T12:59:51;6.22;;;2.45;;
11743;SDS011;5929;51.906;7.674;2023-05-20T13:02:17;5.75;;;2.55;;
11743;SDS011;5929;51.906;7.674;2023-05-20T13:04:44;6.32;;;2.67;;
11743;SDS011;5929;51.906;7.674;2023-05-20T13:07:11;4.43;;;2.40;;
11743;SDS011;5929;51.906;7.674;2023-05-20T13:09:38;5.38;;;2.30;;
11743;SDS011;5929;51.906;7.674;2023-05-20T13:12:05;5.32;;;2.42;;
11743;SDS011;5929;51.906;7.674;2023-05-20T13:14:34;5.90;;;2.47;;
11743;SDS011;5929;51.906;7.674;2023-05-20T13:17:01;4.50;;;2.17;;
11743;SDS011;5929;51.906;7.674;2023-05-20T13:19:28;5.30;;;2.47;;
11743;SDS011;5929;51.906;7.674;2023-05-20T13:21:57;6.57;;;2.70;;
11743;SDS011;5929;51.906;7.674;2023-05-20T13:24:24;5.88;;;2.90;;
11743;SDS011;5929;51.906;7.674;2023-05-20T13:26:51;4.80;;;2.42;;
11743;SDS011;5929;51.906;7.674;2023-05-20T13:29:18;5.32;;;2.30;;
11743;SDS011;5929;51.906;7.674;2023-05-20T13:31:46;6.43;;;2.47;;
11743;SDS011;5929;51.906;7.674;2023-05-20T13:34:13;5.63;;;2.70;;
11743;SDS011;5929;51.906;7.674;2023-05-20T13:36:40;5.28;;;2.50;;
11743;SDS011;5929;51.906;7.674;2023-05-20T13:39:07;5.70;;;2.10;;
11743;SDS011;5929;51.906;7.674;2023-05-20T13:41:34;5.00;;;2.53;;
11743;SDS011;5929;51.906;7.674;2023-05-20T13:44:01;5.13;;;2.88;;
11743;SDS011;5929;51.906;7.674;2023-05-20T13:46:28;5.45;;;2.35;;
11743;SDS011;5929;51.906;7.674;2023-05-20T13:48:56;5.97;;;2.53;;
11743;SDS011;5929;51.906;7.674;2023-05-20T13:51:23;4.28;;;2.10;;
11743;SDS011;5929;51.906;7.674;2023-05-20T13:53:50;3.75;;;1.90;;
11743;SDS011;5929;51.906;7.674;2023-05-20T13:56:17;4.20;;;2.15;;
11743;SDS011;5929;51.906;7.674;2023-05-20T13:58:45;5.50;;;2.13;;
11743;SDS011;5929;51.906;7.674;2023-05-20T14:01:12;4.90;;;2.33;;
11743;SDS011;5929;51.906;7.674;2023-05-20T14:03:39;4.13;;;1.80;;
11743;SDS011;5929;51.906;7.674;2023-05-20T14:06:08;4.68;;;2.08;;
11743;SDS011;5929;51.906;7.674;2023-05-20T14:08:35;4.10;;;2.10;;
11743;SDS011;5929;51.906;7.674;2023-05-20T14:11:04;4.63;;;2.22;;
11743;SDS011;5929;51.906;7.674;2023-05-20T14:13:31;4.07;;;2.30;;
11743;SDS011;5929;51.906;7.674;2023-05-20T14:15:58;4.80;;;2.33;;
11743;SDS011;5929;51.906;7.674;2023-05-20T14:18:24;3.70;;;1.75;;
11743;SDS011;5929;51.906;7.674;2023-05-20T14:20:54;4.75;;;2.33;;
11743;SDS011;5929;51.906;7.674;2023-05-20T14:23:22;4.10;;;2.08;;
11743;SDS011;5929;51.906;7.674;2023-05-20T14:25:49;5.93;;;2.15;;
11743;SDS011;5929;51.906;7.674;2023-05-20T14:28:16;4.97;;;1.98;;
11743;SDS011;5929;51.906;7.674;2023-05-20T14:30:43;8.70;;;2.28;;
11743;SDS011;5929;51.906;7.674;2023-05-20T14:33:12;4.50;;;2.28;;
11743;SDS011;5929;51.906;7.674;2023-05-20T14:35:39;5.45;;;1.92;;
11743;SDS011;5929;51.906;7.674;2023-05-20T14:38:05;3.50;;;1.80;;
11743;SDS011;5929;51.906;7.674;2023-05-20T14:40:36;4.95;;;1.88;;
11743;SDS011;5929;51.906;7.674;2023-05-20T14:43:02;5.97;;;2.40;;
11743;SDS011;5929;51.906;7.674;2023-05-20T14:45:29;4.65;;;2.17;;
11743;SDS011;5929;51.906;7.674;2023-05-20T14:47:56;5.50;;;2.03;;
11743;SDS011;5929;51.906;7.674;2023-05-20T14:50:23;4.50;;;2.10;;
11743;SDS011;5929;51.906;7.674;2023-05-20T14:52:50;4.60;;;1.90;;
11743;SDS011;5929;51.906;7.674;2023-05-20T14:55:16;6.68;;;1.90;;
11743;SDS011;5929;51.906;7.674;2023-05-20T14:57:45;4.75;;;2.17;;
11743;SDS011;5929;51.906;7.674;2023-05-20T15:00:12;6.57;;;2.22;;
11743;SDS011;5929;51.906;7.674;2023-05-20T15:02:39;5.20;;;2.30;;
11743;SDS011;5929;51.906;7.674;2023-05-20T15:05:06;4.28;;;2.00;;